sensor_id;sensor_type;location;lat;lon;timestamp;P1;durP1;ratioP1;P2;durP2;ratioP2
67500;SDS011;54349;52.528;19.760;2024-03-07T00:01:57;7.00;;;5.30;;
67500;SDS011;54349;52.528;19.760;2024-03-07T00:04:29;6.10;;;5.00;;
67500;SDS011;54349;52.528;19.760;2024-03-07T00:06:58;5.00;;;4.50;;
67500;SDS011;54349;52.528;19.760;2024-03-07T00:09:28;6.30;;;5.20;;
67500;SDS011;54349;52.528;19.760;2024-03-07T00:11:57;4.80;;;4.30;;
67500;SDS011;54349;52.528;19.760;2024-03-07T00:14:27;6.90;;;5.70;;
67500;SDS011;54349;52.528;19.760;2024-03-07T00:16:56;7.40;;;6.10;;
67500;SDS011;54349;52.528;19.760;2024-03-07T00:19:29;8.00;;;6.00;;
67500;SDS011;54349;52.528;19.760;2024-03-07T00:21:58;7.40;;;6.00;;
67500;SDS011;54349;52.528;19.760;2024-03-07T00:24:28;5.90;;;5.30;;
67500;SDS011;54349;52.528;19.760;2024-03-07T00:26:56;5.50;;;5.00;;
67500;SDS011;54349;52.528;19.760;2024-03-07T00:29:26;6.70;;;5.80;;
67500;SDS011;54349;52.528;19.760;2024-03-07T00:31:56;7.40;;;5.30;;
67500;SDS011;54349;52.528;19.760;2024-03-07T00:34:26;7.50;;;5.70;;
67500;SDS011;54349;52.528;19.760;2024-03-07T00:36:54;7.10;;;5.80;;
67500;SDS011;54349;52.528;19.760;2024-03-07T00:39:25;7.40;;;6.40;;
67500;SDS011;54349;52.528;19.760;2024-03-07T00:41:54;7.40;;;5.70;;
67500;SDS011;54349;52.528;19.760;2024-03-07T00:44:24;10.20;;;6.00;;
67500;SDS011;54349;52.528;19.760;2024-03-07T00:46:53;7.60;;;6.10;;
67500;SDS011;54349;52.528;19.760;2024-03-07T00:49:23;7.20;;;5.70;;
67500;SDS011;54349;52.528;19.760;2024-03-07T00:51:51;7.80;;;5.50;;
67500;SDS011;54349;52.528;19.760;2024-03-07T00:54:21;6.60;;;5.80;;
67500;SDS011;54349;52.528;19.760;2024-03-07T00:56:49;7.20;;;6.50;;
67500;SDS011;54349;52.528;19.760;2024-03-07T00:59:19;7.20;;;6.10;;
67500;SDS011;54349;52.528;19.760;2024-03-07T01:01:47;7.80;;;6.80;;
67500;SDS011;54349;52.528;19.760;2024-03-07T01:04:18;7.80;;;7.00;;
67500;SDS011;54349;52.528;19.760;2024-03-07T01:06:46;9.50;;;7.00;;
67500;SDS011;54349;52.528;19.760;2024-03-07T01:09:16;7.30;;;6.20;;
67500;SDS011;54349;52.528;19.760;2024-03-07T01:11:47;7.60;;;6.70;;
67500;SDS011;54349;52.528;19.760;2024-03-07T01:14:17;7.00;;;6.40;;
67500;SDS011;54349;52.528;19.760;2024-03-07T01:16:45;7.70;;;6.00;;
67500;SDS011;54349;52.528;19.760;2024-03-07T01:19:16;8.20;;;6.40;;
67500;SDS011;54349;52.528;19.760;2024-03-07T01:21:45;6.90;;;5.80;;
67500;SDS011;54349;52.528;19.760;2024-03-07T01:24:15;7.90;;;7.10;;
67500;SDS011;54349;52.528;19.760;2024-03-07T01:26:50;7.50;;;6.70;;
67500;SDS011;54349;52.528;19.760;2024-03-07T01:29:20;8.00;;;6.90;;
67500;SDS011;54349;52.528;19.760;2024-03-07T01:31:50;8.90;;;7.50;;
67500;SDS011;54349;52.528;19.760;2024-03-07T01:34:21;8.70;;;7.10;;
67500;SDS011;54349;52.528;19.760;2024-03-07T01:36:56;8.50;;;6.70;;
67500;SDS011;54349;52.528;19.760;2024-03-07T01:39:28;7.50;;;6.70;;
67500;SDS011;54349;52.528;19.760;2024-03-07T01:41:58;7.50;;;6.80;;
67500;SDS011;54349;52.528;19.760;2024-03-07T01:44:28;8.50;;;7.20;;
67500;SDS011;54349;52.528;19.760;2024-03-07T01:46:59;8.90;;;7.70;;
67500;SDS011;54349;52.528;19.760;2024-03-07T01:49:32;7.90;;;7.20;;
67500;SDS011;54349;52.528;19.760;2024-03-07T01:52:01;7.70;;;6.80;;
67500;SDS011;54349;52.528;19.760;2024-03-07T01:54:34;10.40;;;7.80;;
67500;SDS011;54349;52.528;19.760;2024-03-07T01:57:04;8.00;;;7.00;;
67500;SDS011;54349;52.528;19.760;2024-03-07T01:59:34;8.30;;;7.50;;
67500;SDS011;54349;52.528;19.760;2024-03-07T02:02:04;7.90;;;7.10;;
67500;SDS011;54349;52.528;19.760;2024-03-07T02:04:34;8.50;;;7.60;;
67500;SDS011;54349;52.528;19.760;2024-03-07T02:07:02;8.90;;;6.80;;
67500;SDS011;54349;52.528;19.760;2024-03-07T02:09:33;8.90;;;7.50;;
67500;SDS011;54349;52.528;19.760;2024-03-07T02:12:01;9.00;;;7.20;;
67500;SDS011;54349;52.528;19.760;2024-03-07T02:14:32;8.90;;;7.20;;
67500;SDS011;54349;52.528;19.760;2024-03-07T02:17:00;9.00;;;8.00;;
67500;SDS011;54349;52.528;19.760;2024-03-07T02:19:30;7.80;;;7.00;;
67500;SDS011;54349;52.528;19.760;2024-03-07T02:22:00;9.80;;;7.10;;
67500;SDS011;54349;52.528;19.760;2024-03-07T02:24:29;9.70;;;8.20;;
67500;SDS011;54349;52.528;19.760;2024-03-07T02:26:59;8.90;;;7.60;;
67500;SDS011;54349;52.528;19.760;2024-03-07T02:29:28;9.60;;;7.90;;
67500;SDS011;54349;52.528;19.760;2024-03-07T02:31:58;9.20;;;7.90;;
67500;SDS011;54349;52.528;19.760;2024-03-07T02:34:28;8.90;;;7.30;;
67500;SDS011;54349;52.528;19.760;2024-03-07T02:36:56;8.70;;;7.70;;
67500;SDS011;54349;52.528;19.760;2024-03-07T02:39:27;10.10;;;7.90;;
67500;SDS011;54349;52.528;19.760;2024-03-07T02:41:55;10.20;;;8.40;;
67500;SDS011;54349;52.528;19.760;2024-03-07T02:44:25;10.70;;;8.60;;
67500;SDS011;54349;52.528;19.760;2024-03-07T02:46:54;9.30;;;7.80;;
67500;SDS011;54349;52.528;19.760;2024-03-07T02:49:26;9.70;;;8.50;;
67500;SDS011;54349;52.528;19.760;2024-03-07T02:51:54;9.40;;;7.70;;
67500;SDS011;54349;52.528;19.760;2024-03-07T02:54:25;9.30;;;7.50;;
67500;SDS011;54349;52.528;19.760;2024-03-07T02:56:55;9.00;;;7.60;;
67500;SDS011;54349;52.528;19.760;2024-03-07T02:59:24;9.40;;;8.10;;
67500;SDS011;54349;52.528;19.760;2024-03-07T03:01:55;8.70;;;7.80;;
67500;SDS011;54349;52.528;19.760;2024-03-07T03:04:25;9.00;;;8.10;;
67500;SDS011;54349;52.528;19.760;2024-03-07T03:06:54;8.80;;;7.90;;
67500;SDS011;54349;52.528;19.760;2024-03-07T03:09:25;9.30;;;8.20;;
67500;SDS011;54349;52.528;19.760;2024-03-07T03:14:24;8.00;;;7.10;;
67500;SDS011;54349;52.528;19.760;2024-03-07T03:16:53;9.80;;;8.10;;
67500;SDS011;54349;52.528;19.760;2024-03-07T03:19:26;10.40;;;7.60;;
67500;SDS011;54349;52.528;19.760;2024-03-07T03:21:54;9.90;;;8.30;;
67500;SDS011;54349;52.528;19.760;2024-03-07T03:24:27;10.00;;;8.10;;
67500;SDS011;54349;52.528;19.760;2024-03-07T03:26:56;10.90;;;8.20;;
67500;SDS011;54349;52.528;19.760;2024-03-07T03:29:24;9.60;;;7.90;;
67500;SDS011;54349;52.528;19.760;2024-03-07T03:31:54;9.20;;;7.60;;
67500;SDS011;54349;52.528;19.760;2024-03-07T03:34:26;9.20;;;8.20;;
67500;SDS011;54349;52.528;19.760;2024-03-07T03:36:54;9.40;;;7.40;;
67500;SDS011;54349;52.528;19.760;2024-03-07T03:39:24;10.80;;;8.20;;
67500;SDS011;54349;52.528;19.760;2024-03-07T03:44:25;9.20;;;7.70;;
67500;SDS011;54349;52.528;19.760;2024-03-07T03:46:53;10.10;;;7.80;;
67500;SDS011;54349;52.528;19.760;2024-03-07T03:49:24;8.80;;;7.90;;
67500;SDS011;54349;52.528;19.760;2024-03-07T03:51:53;9.70;;;7.90;;
67500;SDS011;54349;52.528;19.760;2024-03-07T03:54:23;9.90;;;7.90;;
67500;SDS011;54349;52.528;19.760;2024-03-07T03:56:52;8.40;;;7.40;;
67500;SDS011;54349;52.528;19.760;2024-03-07T03:59:22;8.30;;;7.40;;
67500;SDS011;54349;52.528;19.760;2024-03-07T04:01:50;10.30;;;8.60;;
67500;SDS011;54349;52.528;19.760;2024-03-07T04:04:20;10.40;;;8.60;;
67500;SDS011;54349;52.528;19.760;2024-03-07T04:06:49;10.10;;;8.50;;
67500;SDS011;54349;52.528;19.760;2024-03-07T04:09:19;9.00;;;8.00;;
67500;SDS011;54349;52.528;19.760;2024-03-07T04:11:48;8.10;;;7.20;;
67500;SDS011;54349;52.528;19.760;2024-03-07T04:14:18;9.50;;;7.40;;
67500;SDS011;54349;52.528;19.760;2024-03-07T04:19:17;9.50;;;7.70;;
67500;SDS011;54349;52.528;19.760;2024-03-07T04:21:48;8.80;;;7.70;;
67500;SDS011;54349;52.528;19.760;2024-03-07T04:24:17;9.00;;;7.90;;
67500;SDS011;54349;52.528;19.760;2024-03-07T04:26:46;10.00;;;7.30;;
67500;SDS011;54349;52.528;19.760;2024-03-07T04:29:16;9.30;;;7.50;;
67500;SDS011;54349;52.528;19.760;2024-03-07T04:31:46;9.50;;;8.00;;
67500;SDS011;54349;52.528;19.760;2024-03-07T04:34:16;9.00;;;7.50;;
67500;SDS011;54349;52.528;19.760;2024-03-07T04:36:44;10.70;;;8.10;;
67500;SDS011;54349;52.528;19.760;2024-03-07T04:39:14;10.20;;;8.00;;
67500;SDS011;54349;52.528;19.760;2024-03-07T04:41:53;10.40;;;7.60;;
67500;SDS011;54349;52.528;19.760;2024-03-07T04:44:24;9.60;;;7.50;;
67500;SDS011;54349;52.528;19.760;2024-03-07T04:46:54;8.70;;;7.70;;
67500;SDS011;54349;52.528;19.760;2024-03-07T04:49:24;10.70;;;8.20;;
67500;SDS011;54349;52.528;19.760;2024-03-07T04:52:26;9.80;;;8.00;;
67500;SDS011;54349;52.528;19.760;2024-03-07T04:54:56;9.60;;;8.50;;
67500;SDS011;54349;52.528;19.760;2024-03-07T04:57:25;10.20;;;7.90;;
67500;SDS011;54349;52.528;19.760;2024-03-07T04:59:54;8.60;;;6.90;;
67500;SDS011;54349;52.528;19.760;2024-03-07T05:02:24;8.50;;;7.60;;
67500;SDS011;54349;52.528;19.760;2024-03-07T05:04:53;9.10;;;7.80;;
67500;SDS011;54349;52.528;19.760;2024-03-07T05:07:22;10.90;;;7.60;;
67500;SDS011;54349;52.528;19.760;2024-03-07T05:09:51;9.30;;;7.70;;
67500;SDS011;54349;52.528;19.760;2024-03-07T05:12:21;10.20;;;7.10;;
67500;SDS011;54349;52.528;19.760;2024-03-07T05:14:49;11.90;;;9.30;;
67500;SDS011;54349;52.528;19.760;2024-03-07T05:17:20;8.90;;;7.50;;
67500;SDS011;54349;52.528;19.760;2024-03-07T05:19:49;9.80;;;7.70;;
67500;SDS011;54349;52.528;19.760;2024-03-07T05:22:19;9.40;;;7.70;;
67500;SDS011;54349;52.528;19.760;2024-03-07T05:24:50;10.60;;;8.10;;
67500;SDS011;54349;52.528;19.760;2024-03-07T05:27:19;9.10;;;7.30;;
67500;SDS011;54349;52.528;19.760;2024-03-07T05:29:49;9.00;;;7.80;;
67500;SDS011;54349;52.528;19.760;2024-03-07T05:32:24;8.80;;;7.90;;
67500;SDS011;54349;52.528;19.760;2024-03-07T05:34:57;8.20;;;7.40;;
67500;SDS011;54349;52.528;19.760;2024-03-07T05:37:25;9.40;;;8.50;;
67500;SDS011;54349;52.528;19.760;2024-03-07T05:39:56;9.00;;;7.70;;
67500;SDS011;54349;52.528;19.760;2024-03-07T05:42:24;10.10;;;7.80;;
67500;SDS011;54349;52.528;19.760;2024-03-07T05:44:55;9.40;;;6.80;;
67500;SDS011;54349;52.528;19.760;2024-03-07T05:47:23;8.60;;;7.50;;
67500;SDS011;54349;52.528;19.760;2024-03-07T05:49:53;8.40;;;6.80;;
67500;SDS011;54349;52.528;19.760;2024-03-07T05:52:22;9.40;;;7.40;;
67500;SDS011;54349;52.528;19.760;2024-03-07T05:54:52;8.40;;;7.50;;
67500;SDS011;54349;52.528;19.760;2024-03-07T05:57:20;7.70;;;6.60;;
67500;SDS011;54349;52.528;19.760;2024-03-07T05:59:51;7.70;;;6.30;;
67500;SDS011;54349;52.528;19.760;2024-03-07T06:02:19;8.00;;;7.20;;
67500;SDS011;54349;52.528;19.760;2024-03-07T06:04:49;8.20;;;6.10;;
67500;SDS011;54349;52.528;19.760;2024-03-07T06:07:17;9.30;;;8.20;;
67500;SDS011;54349;52.528;19.760;2024-03-07T06:09:47;8.60;;;7.50;;
67500;SDS011;54349;52.528;19.760;2024-03-07T06:12:16;8.10;;;6.90;;
67500;SDS011;54349;52.528;19.760;2024-03-07T06:14:55;8.10;;;6.60;;
67500;SDS011;54349;52.528;19.760;2024-03-07T06:17:23;7.90;;;7.10;;
67500;SDS011;54349;52.528;19.760;2024-03-07T06:19:53;9.80;;;7.40;;
67500;SDS011;54349;52.528;19.760;2024-03-07T06:22:22;9.40;;;7.40;;
67500;SDS011;54349;52.528;19.760;2024-03-07T06:24:51;9.20;;;7.00;;
67500;SDS011;54349;52.528;19.760;2024-03-07T06:27:20;7.80;;;6.90;;
67500;SDS011;54349;52.528;19.760;2024-03-07T06:29:56;7.90;;;7.00;;
67500;SDS011;54349;52.528;19.760;2024-03-07T06:32:25;7.60;;;6.80;;
67500;SDS011;54349;52.528;19.760;2024-03-07T06:34:55;7.60;;;6.40;;
67500;SDS011;54349;52.528;19.760;2024-03-07T06:37:24;7.10;;;6.40;;
67500;SDS011;54349;52.528;19.760;2024-03-07T06:39:54;7.20;;;6.50;;
67500;SDS011;54349;52.528;19.760;2024-03-07T06:42:22;7.70;;;6.90;;
67500;SDS011;54349;52.528;19.760;2024-03-07T06:44:52;6.80;;;6.10;;
67500;SDS011;54349;52.528;19.760;2024-03-07T06:47:21;8.00;;;6.80;;
67500;SDS011;54349;52.528;19.760;2024-03-07T06:49:51;10.20;;;7.30;;
67500;SDS011;54349;52.528;19.760;2024-03-07T06:52:20;9.60;;;7.60;;
67500;SDS011;54349;52.528;19.760;2024-03-07T06:54:50;15.10;;;10.40;;
67500;SDS011;54349;52.528;19.760;2024-03-07T06:57:18;20.60;;;14.10;;
67500;SDS011;54349;52.528;19.760;2024-03-07T06:59:50;32.60;;;19.20;;
67500;SDS011;54349;52.528;19.760;2024-03-07T07:02:18;42.10;;;22.70;;
67500;SDS011;54349;52.528;19.760;2024-03-07T07:04:48;47.70;;;27.40;;
67500;SDS011;54349;52.528;19.760;2024-03-07T07:07:16;57.90;;;30.40;;
67500;SDS011;54349;52.528;19.760;2024-03-07T07:09:47;70.90;;;34.30;;
67500;SDS011;54349;52.528;19.760;2024-03-07T07:12:22;58.70;;;29.40;;
67500;SDS011;54349;52.528;19.760;2024-03-07T07:14:51;56.40;;;30.90;;
67500;SDS011;54349;52.528;19.760;2024-03-07T07:17:21;66.60;;;32.00;;
67500;SDS011;54349;52.528;19.760;2024-03-07T07:19:52;65.70;;;30.20;;
67500;SDS011;54349;52.528;19.760;2024-03-07T07:22:21;56.70;;;31.20;;
67500;SDS011;54349;52.528;19.760;2024-03-07T07:24:49;61.90;;;31.80;;
67500;SDS011;54349;52.528;19.760;2024-03-07T07:27:20;61.60;;;30.60;;
67500;SDS011;54349;52.528;19.760;2024-03-07T07:29:49;59.10;;;31.10;;
67500;SDS011;54349;52.528;19.760;2024-03-07T07:32:19;55.10;;;29.10;;
67500;SDS011;54349;52.528;19.760;2024-03-07T07:34:50;52.60;;;28.20;;
67500;SDS011;54349;52.528;19.760;2024-03-07T07:37:19;54.30;;;27.90;;
67500;SDS011;54349;52.528;19.760;2024-03-07T07:39:47;54.10;;;28.30;;
67500;SDS011;54349;52.528;19.760;2024-03-07T07:42:18;50.40;;;27.10;;
67500;SDS011;54349;52.528;19.760;2024-03-07T07:44:46;51.70;;;27.50;;
67500;SDS011;54349;52.528;19.760;2024-03-07T07:47:16;53.10;;;27.00;;
67500;SDS011;54349;52.528;19.760;2024-03-07T07:49:45;47.90;;;25.60;;
67500;SDS011;54349;52.528;19.760;2024-03-07T07:52:16;46.20;;;24.60;;
67500;SDS011;54349;52.528;19.760;2024-03-07T07:54:44;48.50;;;25.50;;
67500;SDS011;54349;52.528;19.760;2024-03-07T07:57:12;45.30;;;23.30;;
67500;SDS011;54349;52.528;19.760;2024-03-07T07:59:41;42.00;;;21.60;;
67500;SDS011;54349;52.528;19.760;2024-03-07T08:02:09;44.20;;;23.60;;
67500;SDS011;54349;52.528;19.760;2024-03-07T08:04:40;41.60;;;24.20;;
67500;SDS011;54349;52.528;19.760;2024-03-07T08:07:11;38.10;;;22.50;;
67500;SDS011;54349;52.528;19.760;2024-03-07T08:09:40;36.60;;;20.70;;
67500;SDS011;54349;52.528;19.760;2024-03-07T08:12:08;35.00;;;21.10;;
67500;SDS011;54349;52.528;19.760;2024-03-07T08:14:38;36.30;;;20.50;;
67500;SDS011;54349;52.528;19.760;2024-03-07T08:17:06;38.20;;;20.00;;
67500;SDS011;54349;52.528;19.760;2024-03-07T08:19:37;32.80;;;19.00;;
67500;SDS011;54349;52.528;19.760;2024-03-07T08:22:05;35.30;;;20.80;;
67500;SDS011;54349;52.528;19.760;2024-03-07T08:24:35;37.00;;;20.20;;
67500;SDS011;54349;52.528;19.760;2024-03-07T08:27:03;37.50;;;19.90;;
67500;SDS011;54349;52.528;19.760;2024-03-07T08:29:32;35.00;;;20.60;;
67500;SDS011;54349;52.528;19.760;2024-03-07T08:32:04;40.80;;;21.70;;
67500;SDS011;54349;52.528;19.760;2024-03-07T08:34:33;40.20;;;23.10;;
67500;SDS011;54349;52.528;19.760;2024-03-07T08:37:03;41.40;;;24.20;;
67500;SDS011;54349;52.528;19.760;2024-03-07T08:39:32;44.90;;;26.90;;
67500;SDS011;54349;52.528;19.760;2024-03-07T08:42:04;52.70;;;27.80;;
67500;SDS011;54349;52.528;19.760;2024-03-07T08:44:32;51.50;;;27.90;;
67500;SDS011;54349;52.528;19.760;2024-03-07T08:47:03;49.40;;;27.80;;
67500;SDS011;54349;52.528;19.760;2024-03-07T08:49:31;48.60;;;27.60;;
67500;SDS011;54349;52.528;19.760;2024-03-07T08:52:08;54.00;;;30.20;;
67500;SDS011;54349;52.528;19.760;2024-03-07T08:54:36;58.20;;;31.70;;
67500;SDS011;54349;52.528;19.760;2024-03-07T08:57:07;63.00;;;35.00;;
67500;SDS011;54349;52.528;19.760;2024-03-07T08:59:35;75.50;;;36.60;;
67500;SDS011;54349;52.528;19.760;2024-03-07T09:02:05;77.10;;;39.60;;
67500;SDS011;54349;52.528;19.760;2024-03-07T09:04:33;76.60;;;40.70;;
67500;SDS011;54349;52.528;19.760;2024-03-07T09:07:05;84.80;;;41.00;;
67500;SDS011;54349;52.528;19.760;2024-03-07T09:09:34;74.60;;;38.10;;
67500;SDS011;54349;52.528;19.760;2024-03-07T09:12:05;79.70;;;38.40;;
67500;SDS011;54349;52.528;19.760;2024-03-07T09:14:35;80.70;;;41.40;;
67500;SDS011;54349;52.528;19.760;2024-03-07T09:17:06;89.00;;;41.80;;
67500;SDS011;54349;52.528;19.760;2024-03-07T09:19:34;90.70;;;43.20;;
67500;SDS011;54349;52.528;19.760;2024-03-07T09:22:06;90.30;;;42.40;;
67500;SDS011;54349;52.528;19.760;2024-03-07T09:24:35;85.00;;;42.00;;
67500;SDS011;54349;52.528;19.760;2024-03-07T09:27:07;77.80;;;39.90;;
67500;SDS011;54349;52.528;19.760;2024-03-07T09:29:35;80.50;;;40.60;;
67500;SDS011;54349;52.528;19.760;2024-03-07T09:34:37;76.90;;;38.50;;
67500;SDS011;54349;52.528;19.760;2024-03-07T09:37:07;76.80;;;38.60;;
67500;SDS011;54349;52.528;19.760;2024-03-07T09:39:35;74.40;;;36.60;;
67500;SDS011;54349;52.528;19.760;2024-03-07T09:42:07;71.00;;;37.00;;
67500;SDS011;54349;52.528;19.760;2024-03-07T09:44:38;75.30;;;36.70;;
67500;SDS011;54349;52.528;19.760;2024-03-07T09:47:14;66.90;;;33.90;;
67500;SDS011;54349;52.528;19.760;2024-03-07T09:49:42;71.30;;;33.90;;
67500;SDS011;54349;52.528;19.760;2024-03-07T09:52:26;66.40;;;35.20;;
67500;SDS011;54349;52.528;19.760;2024-03-07T09:54:56;61.20;;;34.50;;
67500;SDS011;54349;52.528;19.760;2024-03-07T09:57:29;72.00;;;33.90;;
67500;SDS011;54349;52.528;19.760;2024-03-07T10:00:00;60.70;;;32.30;;
67500;SDS011;54349;52.528;19.760;2024-03-07T10:02:41;62.30;;;31.00;;
67500;SDS011;54349;52.528;19.760;2024-03-07T10:05:12;56.80;;;31.60;;
67500;SDS011;54349;52.528;19.760;2024-03-07T10:07:46;52.70;;;30.30;;
67500;SDS011;54349;52.528;19.760;2024-03-07T10:10:14;61.20;;;30.90;;
67500;SDS011;54349;52.528;19.760;2024-03-07T10:12:42;55.20;;;30.40;;
67500;SDS011;54349;52.528;19.760;2024-03-07T10:15:11;57.00;;;31.10;;
67500;SDS011;54349;52.528;19.760;2024-03-07T10:17:40;52.40;;;29.10;;
67500;SDS011;54349;52.528;19.760;2024-03-07T10:20:18;58.50;;;30.10;;
67500;SDS011;54349;52.528;19.760;2024-03-07T10:22:54;52.90;;;27.20;;
67500;SDS011;54349;52.528;19.760;2024-03-07T10:27:54;50.20;;;25.60;;
67500;SDS011;54349;52.528;19.760;2024-03-07T10:30:23;53.10;;;27.60;;
67500;SDS011;54349;52.528;19.760;2024-03-07T10:32:55;50.00;;;28.30;;
67500;SDS011;54349;52.528;19.760;2024-03-07T10:35:31;46.20;;;25.50;;
67500;SDS011;54349;52.528;19.760;2024-03-07T10:37:59;51.50;;;27.40;;
67500;SDS011;54349;52.528;19.760;2024-03-07T10:40:30;48.60;;;25.80;;
67500;SDS011;54349;52.528;19.760;2024-03-07T10:42:59;41.80;;;23.10;;
67500;SDS011;54349;52.528;19.760;2024-03-07T10:45:33;40.50;;;24.10;;
67500;SDS011;54349;52.528;19.760;2024-03-07T10:48:05;40.70;;;23.50;;
67500;SDS011;54349;52.528;19.760;2024-03-07T10:53:20;42.40;;;22.90;;
67500;SDS011;54349;52.528;19.760;2024-03-07T11:01:32;37.70;;;21.30;;
67500;SDS011;54349;52.528;19.760;2024-03-07T11:04:05;32.70;;;19.40;;
67500;SDS011;54349;52.528;19.760;2024-03-07T11:06:35;36.90;;;21.00;;
67500;SDS011;54349;52.528;19.760;2024-03-07T11:09:06;32.40;;;19.10;;
67500;SDS011;54349;52.528;19.760;2024-03-07T11:11:42;36.60;;;19.00;;
67500;SDS011;54349;52.528;19.760;2024-03-07T11:14:13;35.70;;;20.50;;
67500;SDS011;54349;52.528;19.760;2024-03-07T11:16:46;31.80;;;19.40;;
67500;SDS011;54349;52.528;19.760;2024-03-07T11:19:18;32.90;;;18.30;;
67500;SDS011;54349;52.528;19.760;2024-03-07T11:21:51;33.30;;;19.50;;
67500;SDS011;54349;52.528;19.760;2024-03-07T11:24:24;33.40;;;18.90;;
67500;SDS011;54349;52.528;19.760;2024-03-07T11:26:55;28.70;;;18.20;;
67500;SDS011;54349;52.528;19.760;2024-03-07T11:32:16;26.80;;;16.90;;
67500;SDS011;54349;52.528;19.760;2024-03-07T11:34:45;28.20;;;16.50;;
67500;SDS011;54349;52.528;19.760;2024-03-07T11:37:16;27.10;;;17.00;;
67500;SDS011;54349;52.528;19.760;2024-03-07T11:39:49;29.60;;;17.30;;
67500;SDS011;54349;52.528;19.760;2024-03-07T11:42:23;30.00;;;17.20;;
67500;SDS011;54349;52.528;19.760;2024-03-07T11:45:02;28.30;;;16.20;;
67500;SDS011;54349;52.528;19.760;2024-03-07T11:47:36;25.50;;;15.30;;
67500;SDS011;54349;52.528;19.760;2024-03-07T11:50:09;21.40;;;13.80;;
67500;SDS011;54349;52.528;19.760;2024-03-07T11:52:40;28.40;;;15.00;;
67500;SDS011;54349;52.528;19.760;2024-03-07T11:55:14;25.70;;;15.00;;
67500;SDS011;54349;52.528;19.760;2024-03-07T11:57:44;25.50;;;15.20;;
67500;SDS011;54349;52.528;19.760;2024-03-07T12:00:22;24.20;;;15.20;;
67500;SDS011;54349;52.528;19.760;2024-03-07T12:05:23;20.10;;;12.00;;
67500;SDS011;54349;52.528;19.760;2024-03-07T12:07:59;21.20;;;14.10;;
67500;SDS011;54349;52.528;19.760;2024-03-07T12:10:28;20.70;;;12.70;;
67500;SDS011;54349;52.528;19.760;2024-03-07T12:15:42;19.60;;;12.10;;
67500;SDS011;54349;52.528;19.760;2024-03-07T12:18:21;16.80;;;12.20;;
67500;SDS011;54349;52.528;19.760;2024-03-07T12:20:59;22.60;;;11.60;;
67500;SDS011;54349;52.528;19.760;2024-03-07T12:23:40;17.70;;;10.70;;
67500;SDS011;54349;52.528;19.760;2024-03-07T12:26:19;18.20;;;11.80;;
67500;SDS011;54349;52.528;19.760;2024-03-07T12:29:08;19.50;;;12.00;;
67500;SDS011;54349;52.528;19.760;2024-03-07T12:31:45;16.70;;;11.00;;
67500;SDS011;54349;52.528;19.760;2024-03-07T12:34:14;18.30;;;10.90;;
67500;SDS011;54349;52.528;19.760;2024-03-07T12:37:03;17.80;;;11.20;;
67500;SDS011;54349;52.528;19.760;2024-03-07T12:39:36;16.70;;;10.30;;
67500;SDS011;54349;52.528;19.760;2024-03-07T12:42:15;19.10;;;11.70;;
67500;SDS011;54349;52.528;19.760;2024-03-07T12:44:50;17.70;;;11.10;;
67500;SDS011;54349;52.528;19.760;2024-03-07T12:47:19;19.10;;;11.30;;
67500;SDS011;54349;52.528;19.760;2024-03-07T12:49:56;17.60;;;10.80;;
67500;SDS011;54349;52.528;19.760;2024-03-07T12:52:27;16.60;;;10.70;;
67500;SDS011;54349;52.528;19.760;2024-03-07T12:54:55;18.70;;;11.50;;
67500;SDS011;54349;52.528;19.760;2024-03-07T12:57:25;20.50;;;12.30;;
67500;SDS011;54349;52.528;19.760;2024-03-07T12:59:55;17.30;;;10.90;;
67500;SDS011;54349;52.528;19.760;2024-03-07T13:02:25;16.30;;;10.60;;
67500;SDS011;54349;52.528;19.760;2024-03-07T13:04:58;15.80;;;10.60;;
67500;SDS011;54349;52.528;19.760;2024-03-07T13:07:29;19.30;;;11.30;;
67500;SDS011;54349;52.528;19.760;2024-03-07T13:10:00;19.10;;;11.40;;
67500;SDS011;54349;52.528;19.760;2024-03-07T13:12:28;18.70;;;11.10;;
67500;SDS011;54349;52.528;19.760;2024-03-07T13:15:00;17.20;;;11.90;;
67500;SDS011;54349;52.528;19.760;2024-03-07T13:20:01;19.00;;;10.50;;
67500;SDS011;54349;52.528;19.760;2024-03-07T13:22:30;17.70;;;11.20;;
67500;SDS011;54349;52.528;19.760;2024-03-07T13:25:00;18.90;;;11.80;;
67500;SDS011;54349;52.528;19.760;2024-03-07T13:27:33;23.20;;;11.50;;
67500;SDS011;54349;52.528;19.760;2024-03-07T13:30:04;18.30;;;12.10;;
67500;SDS011;54349;52.528;19.760;2024-03-07T13:32:35;18.40;;;11.30;;
67500;SDS011;54349;52.528;19.760;2024-03-07T13:35:04;19.20;;;11.60;;
67500;SDS011;54349;52.528;19.760;2024-03-07T13:37:43;19.80;;;12.00;;
67500;SDS011;54349;52.528;19.760;2024-03-07T13:40:17;19.00;;;11.80;;
67500;SDS011;54349;52.528;19.760;2024-03-07T13:42:57;20.30;;;11.30;;
67500;SDS011;54349;52.528;19.760;2024-03-07T13:45:30;18.90;;;12.00;;
67500;SDS011;54349;52.528;19.760;2024-03-07T13:47:59;19.80;;;12.20;;
67500;SDS011;54349;52.528;19.760;2024-03-07T13:50:30;23.30;;;14.20;;
67500;SDS011;54349;52.528;19.760;2024-03-07T13:53:20;27.60;;;15.20;;
67500;SDS011;54349;52.528;19.760;2024-03-07T13:56:01;30.20;;;17.90;;
67500;SDS011;54349;52.528;19.760;2024-03-07T14:23:08;34.60;;;20.30;;
67500;SDS011;54349;52.528;19.760;2024-03-07T14:29:06;32.00;;;19.40;;
67500;SDS011;54349;52.528;19.760;2024-03-07T14:31:43;35.90;;;19.80;;
67500;SDS011;54349;52.528;19.760;2024-03-07T14:34:33;35.40;;;20.40;;
67500;SDS011;54349;52.528;19.760;2024-03-07T14:37:22;40.40;;;22.00;;
67500;SDS011;54349;52.528;19.760;2024-03-07T14:40:09;39.30;;;22.10;;
67500;SDS011;54349;52.528;19.760;2024-03-07T14:42:47;40.10;;;22.40;;
67500;SDS011;54349;52.528;19.760;2024-03-07T14:45:19;47.50;;;25.80;;
67500;SDS011;54349;52.528;19.760;2024-03-07T14:47:49;44.30;;;25.70;;
67500;SDS011;54349;52.528;19.760;2024-03-07T14:50:24;56.20;;;28.70;;
67500;SDS011;54349;52.528;19.760;2024-03-07T14:52:56;50.00;;;27.90;;
67500;SDS011;54349;52.528;19.760;2024-03-07T14:55:26;44.60;;;26.50;;
67500;SDS011;54349;52.528;19.760;2024-03-07T14:57:55;46.10;;;25.80;;
67500;SDS011;54349;52.528;19.760;2024-03-07T15:00:26;43.30;;;25.30;;
67500;SDS011;54349;52.528;19.760;2024-03-07T15:03:05;45.60;;;23.60;;
67500;SDS011;54349;52.528;19.760;2024-03-07T15:05:35;48.20;;;27.30;;
67500;SDS011;54349;52.528;19.760;2024-03-07T15:08:05;39.90;;;24.00;;
67500;SDS011;54349;52.528;19.760;2024-03-07T15:10:34;38.30;;;24.80;;
67500;SDS011;54349;52.528;19.760;2024-03-07T15:13:04;41.50;;;24.60;;
67500;SDS011;54349;52.528;19.760;2024-03-07T15:15:36;38.50;;;22.40;;
67500;SDS011;54349;52.528;19.760;2024-03-07T15:18:05;39.50;;;23.70;;
67500;SDS011;54349;52.528;19.760;2024-03-07T15:20:34;39.50;;;22.60;;
67500;SDS011;54349;52.528;19.760;2024-03-07T15:23:03;37.50;;;20.90;;
67500;SDS011;54349;52.528;19.760;2024-03-07T15:25:33;41.70;;;22.90;;
67500;SDS011;54349;52.528;19.760;2024-03-07T15:28:03;40.60;;;22.40;;
67500;SDS011;54349;52.528;19.760;2024-03-07T15:30:32;41.50;;;22.90;;
67500;SDS011;54349;52.528;19.760;2024-03-07T15:35:34;33.90;;;18.50;;
67500;SDS011;54349;52.528;19.760;2024-03-07T15:38:04;34.60;;;19.80;;
67500;SDS011;54349;52.528;19.760;2024-03-07T15:40:35;31.80;;;19.40;;
67500;SDS011;54349;52.528;19.760;2024-03-07T15:43:05;32.40;;;19.70;;